Terminal Aerodrome Forecast
Issued by NWS

Home | Current Version | Previous Version | Text Only | Print | Product List | Glossary On
Versions: 1 2 3 4 5 6 7 8 9 10 11 12 13 14 15 16 17 18 19 20 21 22
796
FTUS42 KFFC 270526
TAFFTY
TAF
KFTY 270526Z 2706/2806 16006KT P6SM BKN250
     FM270900 16006KT P6SM BKN025
     FM271100 17009KT P6SM VCSH BKN015
     FM271400 17012G20KT 6SM -SHRA BR SCT012 BKN025
      TEMPO 2715/2717 VRB15G25KT 4SM -TSRA BR BKN012CB
     FM271700 21013G24KT 6SM -RA BR BKN025
     FM272000 24012KT P6SM SCT035 BKN100
     FM272300 26008KT P6SM FEW200=

USA.gov is the U.S. government's official web portal to all federal, state and local government web resources and services.